createdAt,value
2022-11-21T00:01:26.851Z,4.60
2022-11-21T00:03:54.227Z,4.70
2022-11-21T00:06:21.296Z,4.70
2022-11-21T00:08:48.279Z,4.70
2022-11-21T00:11:16.226Z,4.70
2022-11-21T00:13:43.657Z,4.80
2022-11-21T00:16:13.381Z,4.80
2022-11-21T00:18:40.426Z,4.70
2022-11-21T00:21:18.424Z,4.70
2022-11-21T00:23:46.525Z,4.60
2022-11-21T00:26:15.080Z,4.60
2022-11-21T00:28:42.552Z,4.60
2022-11-21T00:31:09.497Z,4.60
2022-11-21T00:33:39.652Z,4.70
2022-11-21T00:36:08.335Z,4.70
2022-11-21T00:38:36.228Z,4.70
2022-11-21T00:41:03.201Z,4.60
2022-11-21T00:43:30.132Z,4.60
2022-11-21T00:45:58.690Z,4.60
2022-11-21T00:48:25.680Z,4.60
2022-11-21T00:50:52.648Z,4.60
2022-11-21T00:53:19.683Z,4.60
2022-11-21T00:55:46.648Z,4.60
2022-11-21T00:58:13.638Z,4.60
2022-11-21T01:00:40.678Z,4.60
2022-11-21T01:03:07.691Z,4.60
2022-11-21T01:05:34.609Z,4.60
2022-11-21T01:08:01.514Z,4.60
2022-11-21T01:10:28.548Z,4.60
2022-11-21T01:12:55.473Z,4.50
2022-11-21T01:15:22.834Z,4.50
2022-11-21T01:17:49.746Z,4.50
2022-11-21T01:20:16.851Z,4.50
2022-11-21T01:22:44.078Z,4.50
2022-11-21T01:25:11.055Z,4.60
2022-11-21T01:27:38.000Z,4.60
2022-11-21T01:30:05.396Z,4.60
2022-11-21T01:32:32.434Z,4.60
2022-11-21T01:34:59.388Z,4.60
2022-11-21T01:37:26.351Z,4.50
2022-11-21T01:39:53.304Z,4.50
2022-11-21T01:42:20.210Z,4.40
2022-11-21T01:44:54.262Z,4.50
2022-11-21T01:47:22.853Z,4.40
2022-11-21T01:49:51.224Z,4.40
2022-11-21T01:52:31.511Z,4.40
2022-11-21T01:55:07.154Z,4.40
2022-11-21T01:57:41.316Z,4.40
2022-11-21T02:00:14.741Z,4.40
2022-11-21T02:02:46.206Z,4.40
2022-11-21T02:05:20.044Z,4.50
2022-11-21T02:07:49.476Z,4.50
2022-11-21T02:10:17.120Z,4.50
2022-11-21T02:12:55.730Z,4.60
2022-11-21T02:15:25.067Z,4.60
2022-11-21T02:17:52.013Z,4.60
2022-11-21T02:20:24.226Z,4.60
2022-11-21T02:23:25.145Z,4.70
2022-11-21T02:25:52.392Z,4.70
2022-11-21T02:28:23.657Z,4.70
2022-11-21T02:30:50.958Z,4.60
2022-11-21T02:33:17.938Z,4.60
2022-11-21T02:35:45.040Z,4.60
2022-11-21T02:38:22.669Z,4.60
2022-11-21T02:41:07.141Z,4.60
2022-11-21T02:43:50.994Z,4.60
2022-11-21T02:46:17.950Z,4.60
2022-11-21T02:48:44.919Z,4.60
2022-11-21T02:51:11.962Z,4.60
2022-11-21T02:53:38.990Z,4.60
2022-11-21T02:56:06.048Z,4.60
2022-11-21T02:58:33.047Z,4.60
2022-11-21T03:01:00.106Z,4.60
2022-11-21T03:03:27.086Z,4.60
2022-11-21T03:05:55.031Z,4.60
2022-11-21T03:08:21.983Z,4.60
2022-11-21T03:10:48.950Z,4.60
2022-11-21T03:13:15.995Z,4.60
2022-11-21T03:15:42.914Z,4.60
2022-11-21T03:18:09.804Z,4.60
2022-11-21T03:20:36.938Z,4.60
2022-11-21T03:23:04.409Z,4.60
2022-11-21T03:25:31.555Z,4.60
2022-11-21T03:27:58.543Z,4.60
2022-11-21T03:30:27.571Z,4.60
2022-11-21T03:32:58.444Z,4.60
2022-11-21T03:35:26.005Z,4.60
2022-11-21T03:37:53.098Z,4.50
2022-11-21T03:40:20.177Z,4.50
2022-11-21T03:42:47.109Z,4.40
2022-11-21T03:45:14.066Z,4.30
2022-11-21T03:47:41.475Z,4.30
2022-11-21T03:50:08.776Z,4.30
2022-11-21T03:52:35.817Z,4.20
2022-11-21T03:55:02.831Z,4.20
2022-11-21T03:57:29.786Z,4.20
2022-11-21T03:59:56.712Z,4.20
2022-11-21T04:02:23.804Z,4.10
2022-11-21T04:04:50.781Z,4.20
2022-11-21T04:07:17.765Z,4.20
2022-11-21T04:09:44.904Z,4.10
2022-11-21T04:12:11.839Z,4.20
2022-11-21T04:14:38.827Z,4.10
2022-11-21T04:17:05.870Z,4.00
2022-11-21T04:19:32.781Z,4.00
2022-11-21T04:21:59.812Z,3.90
2022-11-21T04:24:27.174Z,3.80
2022-11-21T04:26:57.090Z,3.70
2022-11-21T04:29:24.022Z,3.70
2022-11-21T04:31:51.006Z,3.60
2022-11-21T04:34:17.923Z,3.60
2022-11-21T04:36:44.929Z,3.60
2022-11-21T04:39:11.969Z,3.50
2022-11-21T04:41:38.904Z,3.50
2022-11-21T04:44:05.975Z,3.50
2022-11-21T04:46:33.170Z,3.40
2022-11-21T04:49:00.106Z,3.40
2022-11-21T04:51:27.087Z,3.40
2022-11-21T04:53:54.101Z,3.40
2022-11-21T04:56:21.045Z,3.40
2022-11-21T04:58:47.962Z,3.40
2022-11-21T05:01:15.057Z,3.40
2022-11-21T05:03:42.089Z,3.50
2022-11-21T05:06:09.038Z,3.60
2022-11-21T05:08:35.970Z,3.60
2022-11-21T05:11:21.488Z,3.60
2022-11-21T05:13:48.401Z,3.60
2022-11-21T05:16:15.321Z,3.70
2022-11-21T05:18:42.273Z,3.70
2022-11-21T05:21:09.233Z,3.70
2022-11-21T05:23:36.200Z,3.70
2022-11-21T05:26:03.232Z,3.70
2022-11-21T05:28:30.159Z,3.80
2022-11-21T05:30:57.080Z,3.80
2022-11-21T05:33:24.069Z,3.80
2022-11-21T05:35:51.000Z,3.80
2022-11-21T05:38:17.965Z,3.90
2022-11-21T05:40:44.960Z,3.90
2022-11-21T05:43:30.753Z,3.90
2022-11-21T05:45:57.748Z,3.90
2022-11-21T05:48:24.904Z,4.00
2022-11-21T05:50:51.884Z,4.00
2022-11-21T05:53:19.637Z,4.00
2022-11-21T05:55:46.817Z,4.10
2022-11-21T05:58:14.573Z,4.20
2022-11-21T06:00:41.774Z,4.20
2022-11-21T06:03:30.638Z,4.20
2022-11-21T06:06:08.924Z,4.30
2022-11-21T06:08:44.955Z,4.20
2022-11-21T06:11:14.218Z,4.30
2022-11-21T06:13:41.467Z,4.30
2022-11-21T06:16:11.678Z,4.20
2022-11-21T06:18:41.332Z,4.20
2022-11-21T06:21:19.743Z,4.30
2022-11-21T06:23:48.062Z,4.30
2022-11-21T06:26:17.465Z,4.30
2022-11-21T06:28:45.173Z,4.30
2022-11-21T06:31:17.478Z,4.40
2022-11-21T06:33:45.267Z,4.40
2022-11-21T06:36:15.115Z,4.40
2022-11-21T06:38:42.964Z,4.40
2022-11-21T06:41:15.022Z,4.40
2022-11-21T06:43:42.495Z,4.40
2022-11-21T06:46:10.071Z,4.40
2022-11-21T06:48:38.303Z,4.40
2022-11-21T06:51:19.835Z,4.40
2022-11-21T06:53:48.415Z,4.40
2022-11-21T06:56:16.011Z,4.40
2022-11-21T06:58:43.127Z,4.40
2022-11-21T07:01:11.395Z,4.40
2022-11-21T07:03:38.537Z,4.50
2022-11-21T07:06:06.718Z,4.40
2022-11-21T07:08:38.017Z,4.40
2022-11-21T07:11:24.604Z,4.40
2022-11-21T07:13:52.231Z,4.50
2022-11-21T07:16:19.241Z,4.40
2022-11-21T07:18:46.233Z,4.40
2022-11-21T07:21:13.369Z,4.50
2022-11-21T07:23:40.694Z,4.50
2022-11-21T07:26:08.763Z,4.60
2022-11-21T07:28:35.918Z,4.60
2022-11-21T07:31:07.251Z,4.70
2022-11-21T07:33:35.581Z,4.70
2022-11-21T07:36:02.553Z,4.70
2022-11-21T07:38:29.531Z,4.70
2022-11-21T07:40:59.512Z,4.80
2022-11-21T07:43:26.467Z,4.80
2022-11-21T07:45:53.447Z,4.80
2022-11-21T07:48:20.464Z,4.80
2022-11-21T07:50:47.509Z,4.80
2022-11-21T07:53:14.755Z,4.90
2022-11-21T07:55:41.865Z,5.00
2022-11-21T07:58:11.522Z,4.90
2022-11-21T08:00:40.480Z,4.90
2022-11-21T08:03:08.069Z,5.00
2022-11-21T08:05:39.645Z,5.00
2022-11-21T08:08:07.338Z,5.00
2022-11-21T08:10:37.427Z,5.10
2022-11-21T08:13:04.395Z,5.20
2022-11-21T08:15:31.361Z,5.30
2022-11-21T08:17:58.333Z,5.30
2022-11-21T08:20:25.410Z,5.30
2022-11-21T08:22:52.606Z,5.40
2022-11-21T08:25:19.590Z,5.40
2022-11-21T08:27:46.535Z,5.50
2022-11-21T08:30:14.314Z,5.50
2022-11-21T08:32:41.271Z,5.70
2022-11-21T08:35:08.547Z,5.80
2022-11-21T08:37:35.536Z,5.90
2022-11-21T08:40:02.554Z,5.90
2022-11-21T08:42:31.671Z,5.90
2022-11-21T08:44:58.613Z,6.00
2022-11-21T08:47:25.686Z,5.90
2022-11-21T08:49:52.653Z,5.90
2022-11-21T08:52:19.748Z,5.90
2022-11-21T08:54:46.813Z,5.80
2022-11-21T08:57:13.740Z,5.70
2022-11-21T08:59:40.764Z,5.70
2022-11-21T09:02:10.973Z,5.60
2022-11-21T09:04:37.995Z,5.70
2022-11-21T09:07:05.164Z,5.70
2022-11-21T09:09:32.157Z,5.80
2022-11-21T09:11:59.091Z,5.80
2022-11-21T09:14:44.484Z,5.80
2022-11-21T09:17:33.987Z,5.70
2022-11-21T09:20:01.015Z,5.60
2022-11-21T09:22:27.999Z,5.60
2022-11-21T09:24:55.063Z,5.70
2022-11-21T09:27:22.109Z,5.90
2022-11-21T09:29:53.863Z,6.00
2022-11-21T09:32:21.616Z,6.20
2022-11-21T09:34:48.706Z,6.30
2022-11-21T09:37:15.747Z,6.30
2022-11-21T09:39:42.683Z,6.30
2022-11-21T09:42:49.343Z,6.40
2022-11-21T09:45:23.585Z,6.50
2022-11-21T09:47:52.341Z,6.90
2022-11-21T09:50:53.606Z,7.30
2022-11-21T09:53:28.984Z,7.80
2022-11-21T09:56:07.467Z,8.00
2022-11-21T09:58:48.857Z,7.80
2022-11-21T10:01:17.315Z,7.70
2022-11-21T10:03:50.824Z,7.50
2022-11-21T10:06:33.395Z,7.40
2022-11-21T10:09:24.263Z,7.40
2022-11-21T10:12:34.112Z,7.50
2022-11-21T10:15:34.776Z,7.50
2022-11-21T10:18:07.501Z,7.10
2022-11-21T10:20:53.371Z,6.90
2022-11-21T10:23:26.203Z,6.70
2022-11-21T10:26:03.781Z,6.50
2022-11-21T10:28:49.508Z,6.40
2022-11-21T10:31:17.345Z,6.80
2022-11-21T10:33:45.297Z,7.40
2022-11-21T10:36:43.533Z,7.70
2022-11-21T10:39:23.473Z,8.00
2022-11-21T10:42:01.268Z,8.20
2022-11-21T10:44:48.633Z,8.30
2022-11-21T10:47:29.073Z,8.30
2022-11-21T10:50:01.641Z,8.20
2022-11-21T10:52:34.379Z,8.10
2022-11-21T10:55:04.322Z,8.20
2022-11-21T10:57:49.636Z,8.10
2022-11-21T11:00:22.537Z,8.00
2022-11-21T11:02:55.542Z,8.00
2022-11-21T11:05:27.513Z,7.90
2022-11-21T11:08:12.395Z,7.80
2022-11-21T11:11:01.841Z,7.80
2022-11-21T11:13:52.043Z,7.80
2022-11-21T11:16:22.322Z,7.80
2022-11-21T11:19:04.407Z,7.90
2022-11-21T11:21:42.099Z,8.00
2022-11-21T11:24:12.098Z,7.80
2022-11-21T11:26:49.376Z,7.80
2022-11-21T11:29:20.931Z,7.80
2022-11-21T11:32:01.365Z,7.60
2022-11-21T11:34:52.974Z,7.70
2022-11-21T11:37:19.871Z,7.70
2022-11-21T11:40:01.059Z,7.80
2022-11-21T11:43:28.107Z,8.00
2022-11-21T11:46:16.502Z,8.40
2022-11-21T11:49:16.840Z,8.50
2022-11-21T11:51:40.100Z,8.60
2022-11-21T11:54:18.608Z,9.00
2022-11-21T11:56:47.274Z,9.20
2022-11-21T11:59:14.356Z,9.50
2022-11-21T12:01:46.842Z,9.60
2022-11-21T12:04:19.245Z,9.70
2022-11-21T12:10:04.662Z,9.80
2022-11-21T12:12:39.500Z,10.10
2022-11-21T12:15:36.699Z,10.30
2022-11-21T12:18:15.938Z,10.60
2022-11-21T12:21:04.377Z,10.60
2022-11-21T12:23:44.772Z,10.50
2022-11-21T12:26:20.989Z,10.00
2022-11-21T12:28:50.809Z,9.40
2022-11-21T12:31:39.442Z,9.00
2022-11-21T12:34:21.428Z,8.70
2022-11-21T12:37:06.482Z,8.30
2022-11-21T12:40:01.036Z,8.00
2022-11-21T12:42:48.405Z,7.70
2022-11-21T12:45:35.666Z,7.50
2022-11-21T12:48:46.978Z,7.50
2022-11-21T12:52:17.993Z,7.70
2022-11-21T12:55:06.495Z,7.90
2022-11-21T12:57:54.593Z,8.30
2022-11-21T13:00:30.700Z,8.60
2022-11-21T13:03:23.708Z,8.80
2022-11-21T13:05:54.753Z,8.80
2022-11-21T13:08:36.884Z,8.60
2022-11-21T13:11:25.299Z,8.30
2022-11-21T13:14:07.839Z,8.10
2022-11-21T13:16:39.812Z,8.00
2022-11-21T13:19:31.700Z,8.00
2022-11-21T13:21:58.656Z,7.90
2022-11-21T13:24:48.070Z,8.00
2022-11-21T13:27:36.480Z,8.00
2022-11-21T13:30:08.001Z,8.10
2022-11-21T13:32:51.554Z,8.20
2022-11-21T13:35:21.332Z,8.30
2022-11-21T13:38:08.280Z,8.20
2022-11-21T13:41:00.245Z,8.10
2022-11-21T13:43:35.389Z,8.00
2022-11-21T13:46:02.850Z,8.00
2022-11-21T13:48:36.497Z,7.90
2022-11-21T13:51:27.774Z,7.90
2022-11-21T13:54:09.970Z,7.80
2022-11-21T13:56:52.053Z,7.70
2022-11-21T13:59:56.253Z,7.70
2022-11-21T14:02:48.205Z,7.60
2022-11-21T14:05:51.090Z,7.50
2022-11-21T14:08:26.943Z,7.50
2022-11-21T14:10:56.236Z,7.50
2022-11-21T14:13:30.848Z,7.50
2022-11-21T14:16:13.992Z,7.50
2022-11-21T14:18:43.835Z,7.50
2022-11-21T14:21:27.136Z,7.40
2022-11-21T14:24:04.359Z,7.20
2022-11-21T14:26:40.866Z,7.00
2022-11-21T14:29:23.752Z,6.80
2022-11-21T14:31:51.107Z,6.50
2022-11-21T14:34:29.099Z,6.40
2022-11-21T14:36:59.371Z,6.20
2022-11-21T14:39:37.287Z,6.10
2022-11-21T14:42:13.687Z,6.00
2022-11-21T14:44:40.714Z,5.90
2022-11-21T14:47:23.613Z,5.90
2022-11-21T14:50:00.832Z,5.80
2022-11-21T14:52:32.976Z,5.70
2022-11-21T14:57:49.081Z,5.60
2022-11-21T15:03:27.956Z,5.40
2022-11-21T15:06:07.887Z,5.30
2022-11-21T15:09:18.306Z,5.20
2022-11-21T15:11:32.883Z,5.10
2022-11-21T15:14:16.474Z,5.10
2022-11-21T15:16:47.521Z,5.00
2022-11-21T15:19:38.906Z,4.80
2022-11-21T15:22:05.960Z,4.70
2022-11-21T15:24:33.019Z,4.60
2022-11-21T15:27:00.045Z,4.60
2022-11-21T15:29:28.323Z,4.50
2022-11-21T15:32:16.482Z,4.40
2022-11-21T15:34:44.311Z,4.20
2022-11-21T15:37:18.440Z,4.20
2022-11-21T15:39:48.433Z,4.10
2022-11-21T15:42:34.103Z,4.00
2022-11-21T15:45:02.192Z,3.80
2022-11-21T15:47:29.247Z,3.60
2022-11-21T15:49:56.161Z,3.60
2022-11-21T15:52:23.672Z,3.50
2022-11-21T15:54:50.654Z,3.40
2022-11-21T15:59:50.731Z,3.20
2022-11-21T16:02:17.711Z,3.20
2022-11-21T16:04:44.687Z,3.20
2022-11-21T16:07:11.782Z,3.20
2022-11-21T16:09:40.959Z,3.20
2022-11-21T16:12:09.394Z,3.10
2022-11-21T16:14:36.296Z,3.10
2022-11-21T16:17:03.333Z,3.00
2022-11-21T16:19:31.133Z,2.90
2022-11-21T16:21:58.292Z,2.90
2022-11-21T16:24:25.183Z,2.90
2022-11-21T16:26:54.672Z,2.80
2022-11-21T16:29:21.766Z,2.80
2022-11-21T16:31:51.344Z,2.70
2022-11-21T16:34:22.686Z,2.70
2022-11-21T16:36:50.590Z,2.60
2022-11-21T16:39:18.906Z,2.50
2022-11-21T16:41:47.437Z,2.50
2022-11-21T16:44:16.258Z,2.50
2022-11-21T16:46:45.553Z,2.40
2022-11-21T16:49:12.705Z,2.40
2022-11-21T16:51:39.625Z,2.30
2022-11-21T16:54:09.106Z,2.20
2022-11-21T16:56:36.220Z,2.20
2022-11-21T16:59:03.363Z,2.10
2022-11-21T17:01:30.425Z,2.10
2022-11-21T17:03:57.525Z,2.10
2022-11-21T17:06:29.289Z,2.10
2022-11-21T17:08:56.412Z,2.10
2022-11-21T17:11:29.488Z,2.10
2022-11-21T17:13:59.298Z,2.10
2022-11-21T17:16:26.699Z,2.10
2022-11-21T17:18:57.846Z,2.10
2022-11-21T17:21:26.303Z,2.00
2022-11-21T17:23:53.425Z,2.00
2022-11-21T17:26:23.378Z,2.00
2022-11-21T17:28:53.355Z,2.00
2022-11-21T17:31:20.902Z,1.90
2022-11-21T17:33:51.870Z,1.90
2022-11-21T17:36:21.488Z,1.80
2022-11-21T17:38:48.991Z,1.80
2022-11-21T17:41:18.669Z,1.80
2022-11-21T17:43:47.235Z,1.80
2022-11-21T17:46:17.144Z,1.80
2022-11-21T17:48:48.470Z,1.80
2022-11-21T17:51:21.484Z,1.80
2022-11-21T17:53:50.865Z,1.70
2022-11-21T17:56:20.532Z,1.70
2022-11-21T17:58:47.641Z,1.60
2022-11-21T18:01:19.456Z,1.60
2022-11-21T18:03:48.221Z,1.60
2022-11-21T18:06:17.046Z,1.60
2022-11-21T18:08:46.651Z,1.50
2022-11-21T18:11:16.760Z,1.50
2022-11-21T18:13:44.040Z,1.50
2022-11-21T18:16:13.994Z,1.50
2022-11-21T18:18:41.851Z,1.50
2022-11-21T18:21:11.983Z,1.40
2022-11-21T18:23:39.433Z,1.40
2022-11-21T18:26:17.918Z,1.40
2022-11-21T18:28:44.905Z,1.40
2022-11-21T18:31:22.879Z,1.40
2022-11-21T18:33:51.726Z,1.40
2022-11-21T18:36:19.656Z,1.40
2022-11-21T18:38:49.541Z,1.30
2022-11-21T18:41:23.834Z,1.20
2022-11-21T18:43:58.688Z,1.20
2022-11-21T18:46:27.402Z,1.20
2022-11-21T18:49:02.876Z,1.10
2022-11-21T18:51:32.655Z,1.20
2022-11-21T18:54:07.346Z,1.20
2022-11-21T18:56:35.456Z,1.20
2022-11-21T18:59:03.571Z,1.20
2022-11-21T19:01:32.079Z,1.20
2022-11-21T19:03:59.757Z,1.30
2022-11-21T19:06:27.697Z,1.40
2022-11-21T19:08:57.411Z,1.50
2022-11-21T19:11:26.960Z,1.60
2022-11-21T19:13:55.131Z,1.70
2022-11-21T19:16:24.929Z,1.80
2022-11-21T19:21:42.410Z,2.10
2022-11-21T19:24:13.843Z,2.20
2022-11-21T19:26:41.433Z,2.30
2022-11-21T19:29:08.786Z,2.50
2022-11-21T19:31:41.033Z,2.60
2022-11-21T19:34:11.500Z,2.70
2022-11-21T19:36:39.590Z,2.80
2022-11-21T19:39:06.832Z,2.90
2022-11-21T19:41:33.878Z,2.90
2022-11-21T19:44:02.012Z,3.00
2022-11-21T19:46:32.115Z,3.00
2022-11-21T19:49:00.716Z,3.10
2022-11-21T19:51:36.207Z,3.10
2022-11-21T19:54:07.248Z,3.20
2022-11-21T19:56:34.702Z,3.20
2022-11-21T19:59:01.611Z,3.20
2022-11-21T20:01:30.832Z,3.20
2022-11-21T20:04:00.086Z,3.20
2022-11-21T20:06:33.097Z,3.20
2022-11-21T20:09:09.540Z,3.20
2022-11-21T20:11:39.986Z,3.10
2022-11-21T20:14:07.777Z,3.10
2022-11-21T20:16:37.475Z,3.20
2022-11-21T20:19:10.835Z,3.20
2022-11-21T20:21:39.292Z,3.30
2022-11-21T20:24:07.286Z,3.30
2022-11-21T20:26:35.028Z,3.30
2022-11-21T20:29:02.626Z,3.30
2022-11-21T20:31:32.437Z,3.30
2022-11-21T20:34:01.427Z,3.30
2022-11-21T20:36:30.868Z,3.30
2022-11-21T20:39:06.280Z,3.30
2022-11-21T20:41:35.832Z,3.30
2022-11-21T20:46:52.570Z,3.20
2022-11-21T20:49:19.474Z,3.20
2022-11-21T20:54:33.459Z,3.20
2022-11-21T20:57:00.495Z,3.20
2022-11-21T20:59:27.888Z,3.20
2022-11-21T21:01:55.333Z,3.20
2022-11-21T21:04:22.453Z,3.20
2022-11-21T21:06:49.400Z,3.20
2022-11-21T21:09:16.490Z,3.30
2022-11-21T21:11:52.670Z,3.20
2022-11-21T21:14:23.770Z,3.20
2022-11-21T21:16:50.883Z,3.20
2022-11-21T21:19:18.375Z,3.20
2022-11-21T21:21:46.356Z,3.20
2022-11-21T21:24:14.562Z,3.20
2022-11-21T21:26:44.728Z,3.20
2022-11-21T21:29:17.954Z,3.20
2022-11-21T21:31:50.649Z,3.30
2022-11-21T21:34:20.373Z,3.30
2022-11-21T21:36:47.591Z,3.30
2022-11-21T21:39:14.855Z,3.30
2022-11-21T21:41:46.133Z,3.30
2022-11-21T21:44:14.261Z,3.20
2022-11-21T21:46:41.262Z,3.20
2022-11-21T21:49:08.311Z,3.10
2022-11-21T21:51:37.366Z,3.10
2022-11-21T21:54:05.200Z,3.00
2022-11-21T21:56:32.721Z,3.00
2022-11-21T21:58:59.931Z,3.00
2022-11-21T22:01:32.150Z,3.00
2022-11-21T22:04:02.454Z,3.00
2022-11-21T22:06:30.502Z,2.90
2022-11-21T22:08:57.695Z,2.90
2022-11-21T22:11:29.951Z,2.90
2022-11-21T22:14:01.299Z,2.90
2022-11-21T22:16:29.524Z,2.90
2022-11-21T22:18:57.045Z,2.90
2022-11-21T22:21:27.863Z,2.90
2022-11-21T22:26:43.772Z,2.90
2022-11-21T22:29:11.027Z,2.90
2022-11-21T22:31:37.925Z,2.90
2022-11-21T22:34:05.325Z,2.90
2022-11-21T22:36:32.302Z,3.00
2022-11-21T22:38:59.354Z,3.10
2022-11-21T22:41:27.443Z,3.10
2022-11-21T22:43:56.662Z,3.10
2022-11-21T22:46:24.649Z,3.20
2022-11-21T22:48:51.785Z,3.20
2022-11-21T22:51:22.218Z,3.30
2022-11-21T22:53:50.407Z,3.20
2022-11-21T22:56:20.353Z,3.30
2022-11-21T22:58:48.439Z,3.30
2022-11-21T23:01:21.074Z,3.20
2022-11-21T23:03:49.243Z,3.30
2022-11-21T23:06:24.753Z,3.30
2022-11-21T23:08:53.581Z,3.20
2022-11-21T23:11:24.490Z,3.30
2022-11-21T23:13:52.530Z,3.30
2022-11-21T23:16:20.055Z,3.30
2022-11-21T23:18:47.966Z,3.30
2022-11-21T23:21:15.154Z,3.30
2022-11-21T23:23:42.264Z,3.30
2022-11-21T23:26:11.437Z,3.30
2022-11-21T23:28:39.000Z,3.30
2022-11-21T23:31:06.070Z,3.30
2022-11-21T23:33:32.949Z,3.40
2022-11-21T23:35:59.986Z,3.30
2022-11-21T23:38:26.920Z,3.30
2022-11-21T23:40:53.982Z,3.30
2022-11-21T23:43:20.905Z,3.30
2022-11-21T23:45:52.701Z,3.30
2022-11-21T23:48:20.418Z,3.30
2022-11-21T23:50:50.857Z,3.20
2022-11-21T23:53:18.765Z,3.30
2022-11-21T23:55:45.967Z,3.30
2022-11-21T23:58:13.170Z,3.20
